Time;durP1;ratioP1;P1;durP2;ratioP2;P2;SDS_P1;SDS_P2;PMS_P1;PMS_P2;Temp;Humidity;BMP_temperature;BMP_pressure;BME280_temperature;BME280_humidity;BME280_pressure;Samples;Min_cycle;Max_cycle;Signal;HPM_P1;HPM_P2
2022/09/29 00:00:01;;;;;;;10.23;5.43;;;;;;;;;;4981624;28;20026;-91
2022/09/29 00:02:27;;;;;;;4.43;3.45;;;;;;;;;;4980089;28;20088;-90
2022/09/29 00:04:53;;;;;;;8.70;3.88;;;;;;;;;;4962952;28;20038;-89
2022/09/29 00:07:19;;;;;;;5.13;3.35;;;;;;;;;;4980550;28;20040;-91
2022/09/29 00:09:45;;;;;;;5.18;3.90;;;;;;;;;;4968127;28;20070;-92
2022/09/29 00:12:11;;;;;;;6.93;3.90;;;;;;;;;;4974253;28;20116;-92
2022/09/29 00:14:37;;;;;;;22.02;8.32;;;;;;;;;;4988107;28;20085;-89
2022/09/29 00:17:03;;;;;;;40.00;13.40;;;;;;;;;;4975430;28;20030;-90
2022/09/29 00:19:29;;;;;;;26.10;9.57;;;;;;;;;;4995902;28;20530;-90
2022/09/29 00:21:55;;;;;;;20.83;8.55;;;;;;;;;;4985291;28;20535;-89
2022/09/29 00:24:21;;;;;;;13.52;6.38;;;;;;;;;;4975448;28;20038;-89
2022/09/29 00:26:47;;;;;;;14.20;6.13;;;;;;;;;;4983116;28;20089;-89
2022/09/29 00:29:13;;;;;;;12.82;6.40;;;;;;;;;;4971258;28;20031;-90
2022/09/29 00:31:39;;;;;;;10.77;5.25;;;;;;;;;;4996400;28;20038;-90
2022/09/29 00:34:05;;;;;;;10.75;5.65;;;;;;;;;;4990728;28;20030;-90
2022/09/29 00:36:31;;;;;;;9.45;4.57;;;;;;;;;;4984667;28;20066;-90
2022/09/29 00:38:58;;;;;;;8.27;4.18;;;;;;;;;;4985322;28;20120;-90
2022/09/29 00:41:25;;;;;;;7.10;4.13;;;;;;;;;;4982154;28;20375;-90
2022/09/29 00:43:53;;;;;;;8.68;4.15;;;;;;;;;;4980582;28;20540;-91
2022/09/29 00:46:27;;;;;;;5.93;3.78;;;;;;;;;;4983231;28;20030;-90
2022/09/29 00:48:54;;;;;;;7.15;3.88;;;;;;;;;;4981934;28;20034;-90
2022/09/29 00:51:21;;;;;;;8.90;4.28;;;;;;;;;;4983517;28;20443;-90
2022/09/29 00:53:47;;;;;;;13.63;5.15;;;;;;;;;;4996178;28;20026;-91
2022/09/29 00:56:14;;;;;;;29.23;6.40;;;;;;;;;;4982264;28;20026;-90
2022/09/29 00:58:43;;;;;;;15.75;6.40;;;;;;;;;;4980793;28;20525;-89
2022/09/29 01:01:09;;;;;;;100.95;9.55;;;;;;;;;;4981822;28;20517;-89
2022/09/29 01:03:38;;;;;;;51.58;7.32;;;;;;;;;;4994926;28;20588;-90
2022/09/29 01:06:09;;;;;;;33.15;5.20;;;;;;;;;;4994530;28;20030;-90
2022/09/29 01:08:44;;;;;;;37.08;4.65;;;;;;;;;;4992589;28;20086;-91
2022/09/29 01:11:11;;;;;;;38.42;5.25;;;;;;;;;;5003749;28;20025;-90
2022/09/29 01:13:37;;;;;;;31.08;4.50;;;;;;;;;;4997889;28;20091;-90
2022/09/29 01:16:03;;;;;;;5.72;3.60;;;;;;;;;;5003927;28;20045;-90
2022/09/29 01:18:30;;;;;;;6.18;4.43;;;;;;;;;;5015594;28;20068;-89
2022/09/29 01:20:59;;;;;;;6.15;4.05;;;;;;;;;;4985525;28;20029;-91
2022/09/29 01:23:45;;;;;;;9.90;4.82;;;;;;;;;;4998784;28;20029;-90
2022/09/29 01:26:26;;;;;;;15.60;4.88;;;;;;;;;;5001151;28;20033;-90
2022/09/29 01:29:11;;;;;;;20.27;5.65;;;;;;;;;;5003636;28;20033;-91
2022/09/29 01:31:43;;;;;;;7.50;4.80;;;;;;;;;;5003755;28;20057;-89
2022/09/29 01:34:28;;;;;;;8.48;4.65;;;;;;;;;;5007793;28;20037;-90
2022/09/29 01:37:10;;;;;;;8.57;4.78;;;;;;;;;;5006927;28;20042;-89
2022/09/29 01:39:39;;;;;;;11.88;4.07;;;;;;;;;;5000637;28;20029;-91
2022/09/29 01:42:18;;;;;;;22.80;5.40;;;;;;;;;;5004792;28;20034;-90
2022/09/29 01:44:47;;;;;;;6.32;4.57;;;;;;;;;;4997614;28;20044;-91
2022/09/29 01:47:18;;;;;;;11.82;4.43;;;;;;;;;;5016337;28;20255;-90
2022/09/29 01:49:46;;;;;;;66.53;7.00;;;;;;;;;;4997243;28;20534;-91
2022/09/29 01:52:17;;;;;;;47.20;6.30;;;;;;;;;;5004917;28;20030;-89
2022/09/29 01:55:04;;;;;;;20.95;4.40;;;;;;;;;;5006290;28;20160;-90
2022/09/29 01:57:33;;;;;;;9.52;4.43;;;;;;;;;;5021098;28;20624;-90
2022/09/29 02:00:07;;;;;;;56.53;6.30;;;;;;;;;;4997063;28;20030;-90
2022/09/29 02:02:37;;;;;;;21.48;4.43;;;;;;;;;;4997231;28;20060;-91
2022/09/29 02:05:07;;;;;;;6.15;3.85;;;;;;;;;;5017977;28;20555;-90
2022/09/29 02:07:39;;;;;;;7.38;4.28;;;;;;;;;;5001151;28;20504;-89
2022/09/29 02:10:10;;;;;;;7.68;3.83;;;;;;;;;;4998900;28;20029;-91
2022/09/29 02:12:38;;;;;;;6.05;4.07;;;;;;;;;;4995981;28;20061;-91
2022/09/29 02:15:06;;;;;;;5.95;4.07;;;;;;;;;;4994835;28;20029;-90
2022/09/29 02:17:38;;;;;;;6.82;4.15;;;;;;;;;;5004866;28;20608;-91
2022/09/29 02:20:05;;;;;;;10.05;6.40;;;;;;;;;;4997145;28;20029;-90
2022/09/29 02:22:31;;;;;;;15.02;8.20;;;;;;;;;;4999923;28;20381;-90
2022/09/29 02:24:58;;;;;;;18.15;9.65;;;;;;;;;;5002885;28;20021;-91
2022/09/29 02:27:27;;;;;;;18.10;9.50;;;;;;;;;;5020474;28;20482;-88
2022/09/29 02:29:53;;;;;;;14.73;8.68;;;;;;;;;;4995458;28;20489;-90
2022/09/29 02:32:20;;;;;;;12.05;6.75;;;;;;;;;;4993625;28;20723;-90
2022/09/29 02:34:47;;;;;;;11.40;6.50;;;;;;;;;;5014459;28;20108;-90
2022/09/29 02:37:26;;;;;;;11.27;6.03;;;;;;;;;;4995464;28;20295;-90
2022/09/29 02:39:52;;;;;;;7.55;4.97;;;;;;;;;;4996923;28;20088;-90
2022/09/29 02:42:18;;;;;;;10.05;5.15;;;;;;;;;;4998128;28;20082;-90
2022/09/29 02:44:51;;;;;;;9.00;5.07;;;;;;;;;;5014019;28;20029;-89
2022/09/29 02:47:23;;;;;;;11.43;4.65;;;;;;;;;;5001203;28;20056;-89
2022/09/29 02:50:09;;;;;;;8.93;5.30;;;;;;;;;;4997716;28;20056;-89
2022/09/29 02:53:01;;;;;;;22.17;5.37;;;;;;;;;;5005525;28;20037;-91
2022/09/29 02:55:57;;;;;;;10.52;4.68;;;;;;;;;;5021734;28;22464;-91
2022/09/29 02:58:30;;;;;;;42.88;6.60;;;;;;;;;;4987119;28;20037;-90
2022/09/29 03:00:57;;;;;;;22.45;6.00;;;;;;;;;;4997762;28;20107;-91
2022/09/29 03:03:29;;;;;;;8.80;5.15;;;;;;;;;;4986874;28;20089;-91
2022/09/29 03:05:56;;;;;;;35.10;6.47;;;;;;;;;;4969541;28;20034;-91
2022/09/29 03:08:22;;;;;;;72.88;7.90;;;;;;;;;;4984992;28;20762;-91
2022/09/29 03:10:48;;;;;;;47.35;7.28;;;;;;;;;;5000237;28;20060;-91
2022/09/29 03:13:14;;;;;;;23.02;6.45;;;;;;;;;;4990964;28;20397;-91
2022/09/29 03:15:40;;;;;;;31.10;6.28;;;;;;;;;;4994250;28;20034;-91
2022/09/29 03:18:07;;;;;;;79.95;8.05;;;;;;;;;;4986773;28;20022;-91
2022/09/29 03:20:33;;;;;;;63.92;7.22;;;;;;;;;;4983773;28;20036;-91
2022/09/29 03:22:59;;;;;;;46.80;7.07;;;;;;;;;;4972971;28;20038;-91
2022/09/29 03:25:25;;;;;;;9.85;5.47;;;;;;;;;;4985914;28;20036;-90
2022/09/29 03:27:51;;;;;;;83.05;8.80;;;;;;;;;;4997553;28;20303;-91
2022/09/29 03:30:18;;;;;;;37.72;8.35;;;;;;;;;;4986800;28;20372;-90
2022/09/29 03:32:44;;;;;;;35.35;6.20;;;;;;;;;;4959858;28;21118;-90
2022/09/29 03:35:11;;;;;;;72.35;7.30;;;;;;;;;;4977680;28;20558;-90
2022/09/29 03:37:37;;;;;;;8.60;4.88;;;;;;;;;;4982789;28;20026;-91
2022/09/29 03:40:04;;;;;;;22.50;4.75;;;;;;;;;;4989475;28;20560;-91
2022/09/29 03:42:31;;;;;;;37.10;5.68;;;;;;;;;;4968005;28;20022;-90
2022/09/29 03:44:57;;;;;;;11.52;4.50;;;;;;;;;;4979630;28;20034;-90
2022/09/29 03:47:23;;;;;;;47.40;5.70;;;;;;;;;;4982930;28;20034;-90
2022/09/29 03:49:49;;;;;;;63.15;6.80;;;;;;;;;;4980591;28;20181;-91
2022/09/29 03:52:16;;;;;;;9.45;5.47;;;;;;;;;;4969012;28;20681;-91
2022/09/29 03:54:42;;;;;;;14.40;5.10;;;;;;;;;;4983325;28;20398;-90
2022/09/29 03:57:08;;;;;;;14.88;5.47;;;;;;;;;;4959267;28;20030;-91
2022/09/29 03:59:34;;;;;;;19.60;5.57;;;;;;;;;;4976288;28;20023;-91
2022/09/29 04:02:00;;;;;;;20.52;6.30;;;;;;;;;;4984545;28;20243;-92
2022/09/29 04:04:26;;;;;;;13.23;5.65;;;;;;;;;;4998425;28;20099;-92
2022/09/29 04:06:52;;;;;;;11.13;5.72;;;;;;;;;;4996008;28;20033;-92
2022/09/29 04:09:18;;;;;;;9.10;5.50;;;;;;;;;;4989157;28;20486;-90
2022/09/29 04:11:44;;;;;;;10.57;5.78;;;;;;;;;;4997549;28;20080;-91
2022/09/29 04:14:10;;;;;;;15.45;6.13;;;;;;;;;;4991454;28;20137;-91
2022/09/29 04:16:36;;;;;;;42.25;6.80;;;;;;;;;;4982545;28;20034;-90
2022/09/29 04:19:02;;;;;;;25.48;5.88;;;;;;;;;;4984393;28;20052;-91
2022/09/29 04:21:28;;;;;;;33.13;7.35;;;;;;;;;;4994938;28;20482;-90
2022/09/29 04:23:54;;;;;;;9.77;5.68;;;;;;;;;;4993551;28;20041;-92
2022/09/29 04:26:20;;;;;;;9.75;5.55;;;;;;;;;;4995565;28;20066;-92
2022/09/29 04:28:46;;;;;;;12.95;5.90;;;;;;;;;;4998550;28;20061;-88
2022/09/29 04:31:12;;;;;;;11.18;5.68;;;;;;;;;;4995110;28;20034;-89
2022/09/29 04:33:39;;;;;;;66.35;8.43;;;;;;;;;;4997929;28;20041;-91
2022/09/29 04:36:05;;;;;;;14.32;6.35;;;;;;;;;;4995627;28;20048;-92
2022/09/29 04:38:31;;;;;;;10.68;6.43;;;;;;;;;;4988758;28;20119;-91
2022/09/29 04:40:57;;;;;;;11.88;6.20;;;;;;;;;;4995467;28;20037;-91
2022/09/29 04:43:23;;;;;;;13.95;6.43;;;;;;;;;;5002145;28;20481;-90
2022/09/29 04:45:49;;;;;;;38.88;7.28;;;;;;;;;;4997913;28;20224;-89
2022/09/29 04:48:15;;;;;;;20.55;6.00;;;;;;;;;;5002379;28;20037;-91
2022/09/29 04:50:42;;;;;;;9.95;5.88;;;;;;;;;;4984017;28;20396;-91
2022/09/29 04:53:09;;;;;;;10.40;6.40;;;;;;;;;;4993561;28;20029;-92
2022/09/29 04:55:36;;;;;;;11.70;6.57;;;;;;;;;;4990396;28;20049;-90
2022/09/29 04:58:03;;;;;;;13.55;6.93;;;;;;;;;;5001850;28;20025;-91
2022/09/29 05:00:30;;;;;;;12.55;7.57;;;;;;;;;;5001798;28;20495;-91
2022/09/29 05:02:57;;;;;;;11.55;6.85;;;;;;;;;;4982204;28;20057;-90
2022/09/29 05:05:23;;;;;;;10.80;6.70;;;;;;;;;;4985732;28;20029;-90
2022/09/29 05:07:49;;;;;;;10.85;6.80;;;;;;;;;;4987083;28;20043;-91
2022/09/29 05:10:15;;;;;;;11.23;6.97;;;;;;;;;;4984027;28;20068;-91
2022/09/29 05:12:41;;;;;;;15.20;7.32;;;;;;;;;;4967790;28;20050;-91
2022/09/29 05:15:07;;;;;;;13.48;6.95;;;;;;;;;;4967606;28;20080;-91
2022/09/29 05:17:33;;;;;;;10.38;6.47;;;;;;;;;;4962872;28;20038;-91
2022/09/29 05:19:59;;;;;;;12.52;6.85;;;;;;;;;;4979979;28;20031;-89
2022/09/29 05:22:26;;;;;;;12.50;6.75;;;;;;;;;;4978395;28;20029;-91
2022/09/29 05:24:52;;;;;;;18.23;7.15;;;;;;;;;;4975862;28;20066;-91
2022/09/29 05:27:18;;;;;;;17.35;8.23;;;;;;;;;;4981121;28;20037;-91
2022/09/29 05:29:44;;;;;;;17.73;7.72;;;;;;;;;;4985190;28;20402;-91
2022/09/29 05:32:11;;;;;;;13.88;8.10;;;;;;;;;;4990615;28;20473;-91
2022/09/29 05:34:37;;;;;;;14.80;7.88;;;;;;;;;;4984814;28;20038;-92
2022/09/29 05:37:04;;;;;;;15.23;7.28;;;;;;;;;;4988003;28;20379;-91
2022/09/29 05:39:33;;;;;;;12.88;7.90;;;;;;;;;;5005968;28;20042;-91
2022/09/29 05:41:59;;;;;;;15.90;8.23;;;;;;;;;;4973625;28;20171;-90
2022/09/29 05:44:25;;;;;;;18.77;7.35;;;;;;;;;;4981669;28;20053;-90
2022/09/29 05:46:51;;;;;;;15.52;8.20;;;;;;;;;;4974985;28;20049;-91
2022/09/29 05:49:18;;;;;;;15.63;8.63;;;;;;;;;;4962997;28;20149;-91
2022/09/29 05:51:44;;;;;;;14.35;7.47;;;;;;;;;;4971433;28;20033;-91
2022/09/29 05:54:10;;;;;;;17.92;8.35;;;;;;;;;;4978197;28;20128;-90
2022/09/29 05:56:36;;;;;;;19.00;9.15;;;;;;;;;;4964646;28;20156;-89
2022/09/29 05:59:02;;;;;;;15.20;8.98;;;;;;;;;;4986804;28;20599;-89
2022/09/29 06:01:28;;;;;;;21.20;10.07;;;;;;;;;;4984138;28;20076;-90
2022/09/29 06:04:02;;;;;;;13.93;8.40;;;;;;;;;;4982066;28;20132;-90
2022/09/29 06:06:28;;;;;;;14.80;8.20;;;;;;;;;;4984474;28;20068;-91
2022/09/29 06:08:56;;;;;;;19.00;9.52;;;;;;;;;;5002928;28;20041;-91
2022/09/29 06:11:23;;;;;;;13.95;8.23;;;;;;;;;;4994928;28;20061;-89
2022/09/29 06:13:51;;;;;;;14.70;7.85;;;;;;;;;;5001696;28;20477;-90
2022/09/29 06:16:18;;;;;;;17.83;8.35;;;;;;;;;;4988138;28;20154;-90
2022/09/29 06:18:45;;;;;;;19.30;9.18;;;;;;;;;;5004246;28;20025;-90
2022/09/29 06:21:15;;;;;;;17.40;8.60;;;;;;;;;;4982026;28;20064;-90
2022/09/29 06:23:41;;;;;;;17.05;9.18;;;;;;;;;;5016048;28;20548;-91
2022/09/29 06:26:08;;;;;;;17.30;9.25;;;;;;;;;;4994728;28;20030;-90
2022/09/29 06:28:35;;;;;;;16.63;7.82;;;;;;;;;;4997484;28;20045;-90
2022/09/29 06:31:02;;;;;;;16.77;9.75;;;;;;;;;;4997140;28;20048;-91
2022/09/29 06:33:29;;;;;;;19.95;9.82;;;;;;;;;;4996401;28;20099;-89
2022/09/29 06:38:40;;;;;;;23.77;9.77;;;;;;;;;;5013282;28;20048;-91
2022/09/29 06:41:07;;;;;;;19.73;10.18;;;;;;;;;;5010532;28;20025;-90
2022/09/29 06:43:33;;;;;;;17.92;10.45;;;;;;;;;;4979116;28;20689;-90
2022/09/29 06:45:59;;;;;;;19.33;10.25;;;;;;;;;;4996487;28;20044;-91
2022/09/29 06:48:25;;;;;;;23.02;10.82;;;;;;;;;;4979613;28;20129;-90
2022/09/29 06:50:51;;;;;;;19.45;10.95;;;;;;;;;;4997848;28;20485;-91
2022/09/29 06:53:17;;;;;;;20.67;11.20;;;;;;;;;;4994220;28;20113;-90
2022/09/29 06:55:51;;;;;;;19.38;10.13;;;;;;;;;;4981847;28;20045;-90
2022/09/29 06:58:17;;;;;;;18.23;9.75;;;;;;;;;;5011519;28;20486;-90
2022/09/29 07:00:43;;;;;;;18.85;9.23;;;;;;;;;;4997195;28;20379;-88
2022/09/29 07:03:09;;;;;;;23.25;12.15;;;;;;;;;;4979848;28;20521;-91
2022/09/29 07:05:35;;;;;;;27.45;12.00;;;;;;;;;;4966311;28;20113;-91
2022/09/29 07:08:02;;;;;;;35.03;13.07;;;;;;;;;;4982326;28;20068;-90
2022/09/29 07:10:28;;;;;;;23.48;12.57;;;;;;;;;;4964282;28;20038;-90
2022/09/29 07:12:54;;;;;;;20.67;12.20;;;;;;;;;;4967328;28;20293;-89
2022/09/29 07:15:21;;;;;;;20.60;11.85;;;;;;;;;;4982617;28;20505;-91
2022/09/29 07:17:53;;;;;;;20.75;12.15;;;;;;;;;;4955904;28;20032;-91
2022/09/29 07:20:19;;;;;;;21.10;11.32;;;;;;;;;;4965168;28;20062;-90
2022/09/29 07:22:48;;;;;;;18.17;10.85;;;;;;;;;;4961473;28;20104;-90
2022/09/29 07:25:14;;;;;;;25.02;11.68;;;;;;;;;;4975383;28;20121;-90
2022/09/29 07:27:40;;;;;;;15.55;9.45;;;;;;;;;;4963675;28;20609;-91
2022/09/29 07:30:06;;;;;;;20.33;10.85;;;;;;;;;;4975990;28;20029;-91
2022/09/29 07:32:32;;;;;;;25.50;11.00;;;;;;;;;;4974561;28;20504;-90
2022/09/29 07:34:58;;;;;;;17.02;10.27;;;;;;;;;;4975483;28;20035;-89
2022/09/29 07:37:28;;;;;;;22.98;9.82;;;;;;;;;;4967957;28;20041;-91
2022/09/29 07:39:54;;;;;;;18.85;10.38;;;;;;;;;;4983802;28;20549;-91
2022/09/29 07:42:20;;;;;;;22.38;11.27;;;;;;;;;;4964503;28;20030;-90
2022/09/29 07:44:47;;;;;;;15.82;9.23;;;;;;;;;;4955069;28;20041;-91
2022/09/29 07:47:13;;;;;;;17.20;10.10;;;;;;;;;;4980785;28;20040;-91
2022/09/29 07:49:39;;;;;;;21.08;10.75;;;;;;;;;;4981706;28;20128;-92
2022/09/29 07:52:05;;;;;;;15.35;10.25;;;;;;;;;;4989765;28;20553;-91
2022/09/29 07:54:31;;;;;;;21.52;10.45;;;;;;;;;;4973547;28;20117;-91
2022/09/29 07:57:00;;;;;;;18.83;11.27;;;;;;;;;;4979777;28;20486;-91
2022/09/29 07:59:26;;;;;;;16.80;9.73;;;;;;;;;;4957773;28;20089;-91
2022/09/29 08:01:53;;;;;;;18.38;10.65;;;;;;;;;;4975193;28;20046;-92
2022/09/29 08:04:19;;;;;;;18.08;9.38;;;;;;;;;;4990115;28;20463;-90
2022/09/29 08:06:46;;;;;;;15.30;9.68;;;;;;;;;;4988283;28;20576;-92
2022/09/29 08:09:12;;;;;;;18.17;10.30;;;;;;;;;;4984716;28;20040;-92
2022/09/29 08:11:39;;;;;;;16.65;9.93;;;;;;;;;;4980443;28;20032;-91
2022/09/29 08:14:05;;;;;;;14.52;9.82;;;;;;;;;;5002061;28;20498;-92
2022/09/29 08:16:32;;;;;;;17.27;9.32;;;;;;;;;;4980094;28;20071;-91
2022/09/29 08:18:58;;;;;;;18.33;10.95;;;;;;;;;;5000572;28;20445;-90
2022/09/29 08:21:25;;;;;;;16.98;10.50;;;;;;;;;;4998141;28;20625;-91
2022/09/29 08:23:51;;;;;;;17.45;10.07;;;;;;;;;;4994062;28;20450;-91
2022/09/29 08:26:18;;;;;;;15.23;9.70;;;;;;;;;;4996420;28;20315;-92
2022/09/29 08:28:44;;;;;;;17.45;10.45;;;;;;;;;;5002237;28;20128;-91
2022/09/29 08:31:12;;;;;;;19.35;11.07;;;;;;;;;;5000168;28;20038;-92
2022/09/29 08:33:39;;;;;;;24.02;11.38;;;;;;;;;;4999998;28;20034;-91
2022/09/29 08:36:13;;;;;;;18.25;10.52;;;;;;;;;;4996561;28;20112;-91
2022/09/29 08:38:46;;;;;;;19.08;11.15;;;;;;;;;;4989149;28;20496;-92
2022/09/29 08:41:35;;;;;;;18.60;10.63;;;;;;;;;;4999272;28;20638;-92
2022/09/29 08:44:06;;;;;;;18.80;9.38;;;;;;;;;;5005297;28;20491;-91
2022/09/29 08:46:53;;;;;;;20.65;9.90;;;;;;;;;;5000910;28;20037;-91
2022/09/29 08:49:19;;;;;;;;;;;;;;;;;;4996183;28;20560;-91
2022/09/29 08:51:51;;;;;;;16.05;10.35;;;;;;;;;;4995950;28;22814;-91
2022/09/29 08:54:23;;;;;;;15.68;9.30;;;;;;;;;;4998232;28;20032;-92
2022/09/29 08:56:49;;;;;;;14.93;10.23;;;;;;;;;;5001069;28;20400;-91
2022/09/29 08:59:16;;;;;;;14.60;8.43;;;;;;;;;;5000029;28;20025;-91
2022/09/29 09:02:11;;;;;;;14.68;9.07;;;;;;;;;;4996583;28;20104;-92
2022/09/29 09:05:00;;;;;;;10.80;7.20;;;;;;;;;;4932129;28;20052;-91
2022/09/29 09:07:32;;;;;;;10.93;7.32;;;;;;;;;;4988793;28;20034;-92
2022/09/29 09:10:03;;;;;;;12.57;6.70;;;;;;;;;;4995505;28;20178;-93
2022/09/29 09:12:52;;;;;;;9.48;6.90;;;;;;;;;;4998240;28;20434;-92
2022/09/29 09:15:24;;;;;;;12.02;7.47;;;;;;;;;;4989012;28;20136;-90
2022/09/29 09:17:50;;;;;;;7.75;5.80;;;;;;;;;;4993063;28;20602;-91
2022/09/29 09:20:19;;;;;;;11.90;6.15;;;;;;;;;;4995093;28;20038;-91
2022/09/29 09:22:45;;;;;;;13.70;6.20;;;;;;;;;;4993559;28;20108;-92
2022/09/29 09:25:30;;;;;;;11.57;6.05;;;;;;;;;;4996077;28;20173;-92
2022/09/29 09:28:11;;;;;;;11.48;5.55;;;;;;;;;;5011275;28;20366;-90
2022/09/29 09:30:40;;;;;;;7.00;5.25;;;;;;;;;;4996694;28;21140;-91
2022/09/29 09:33:11;;;;;;;11.32;4.90;;;;;;;;;;4999831;28;20105;-90
2022/09/29 09:35:48;;;;;;;8.07;5.10;;;;;;;;;;4999571;28;21570;-90
2022/09/29 09:38:38;;;;;;;10.32;5.00;;;;;;;;;;5006172;28;20039;-91
2022/09/29 09:41:04;;;;;;;12.82;5.28;;;;;;;;;;5012236;28;20067;-91
2022/09/29 09:43:41;;;;;;;7.60;5.63;;;;;;;;;;4978046;28;20036;-91
2022/09/29 09:46:17;;;;;;;8.70;5.40;;;;;;;;;;5017725;28;20053;-91
2022/09/29 09:48:44;;;;;;;7.45;4.30;;;;;;;;;;4996818;28;20026;-91
2022/09/29 09:51:31;;;;;;;9.65;4.78;;;;;;;;;;4999367;28;20095;-91
2022/09/29 09:54:01;;;;;;;6.63;4.90;;;;;;;;;;4999813;28;20037;-91
2022/09/29 09:56:39;;;;;;;8.05;4.47;;;;;;;;;;5016838;28;20442;-90
2022/09/29 09:59:05;;;;;;;7.65;4.63;;;;;;;;;;5005477;28;20080;-90
2022/09/29 10:01:35;;;;;;;6.03;4.13;;;;;;;;;;5000801;28;20077;-91
2022/09/29 10:04:01;;;;;;;4.25;3.65;;;;;;;;;;4988764;28;20501;-91
2022/09/29 10:06:28;;;;;;;9.25;4.43;;;;;;;;;;4976286;28;20034;-90
2022/09/29 10:08:54;;;;;;;5.15;3.58;;;;;;;;;;4999186;28;20521;-91
2022/09/29 10:11:29;;;;;;;7.57;3.50;;;;;;;;;;4986047;28;20038;-90
2022/09/29 10:14:03;;;;;;;4.13;2.60;;;;;;;;;;4989476;28;20088;-91
2022/09/29 10:16:50;;;;;;;4.78;2.83;;;;;;;;;;4992860;28;20032;-91
2022/09/29 10:19:21;;;;;;;3.40;2.90;;;;;;;;;;4980724;28;20041;-91
2022/09/29 10:21:48;;;;;;;3.22;2.70;;;;;;;;;;4983164;28;20489;-92
2022/09/29 10:24:27;;;;;;;14.30;4.72;;;;;;;;;;4989296;28;20022;-91
2022/09/29 10:26:55;;;;;;;10.20;3.63;;;;;;;;;;5003687;28;20034;-91
2022/09/29 10:29:38;;;;;;;4.80;2.95;;;;;;;;;;5001118;28;20044;-91
2022/09/29 10:32:05;;;;;;;7.65;3.38;;;;;;;;;;5001882;28;20495;-90
2022/09/29 10:34:35;;;;;;;3.33;3.00;;;;;;;;;;4995337;28;20045;-91
2022/09/29 10:37:24;;;;;;;3.83;3.00;;;;;;;;;;5000883;28;20030;-92
2022/09/29 10:39:51;;;;;;;3.92;2.10;;;;;;;;;;4997681;28;20022;-91
2022/09/29 10:42:36;;;;;;;4.32;2.00;;;;;;;;;;4989968;28;20029;-91
2022/09/29 10:45:25;;;;;;;3.55;3.08;;;;;;;;;;4988782;28;20037;-91
2022/09/29 10:47:57;;;;;;;6.53;2.95;;;;;;;;;;4981349;28;20025;-90
2022/09/29 10:50:31;;;;;;;9.07;2.63;;;;;;;;;;4979779;28;20061;-91
2022/09/29 10:53:03;;;;;;;11.20;3.05;;;;;;;;;;4982042;28;20042;-91
2022/09/29 10:55:32;;;;;;;5.38;3.80;;;;;;;;;;4993562;28;20030;-90
2022/09/29 10:58:28;;;;;;;4.15;3.05;;;;;;;;;;4988419;28;20049;-90
2022/09/29 11:01:06;;;;;;;9.85;3.92;;;;;;;;;;4972284;28;20243;-90
2022/09/29 11:03:47;;;;;;;3.75;3.38;;;;;;;;;;4984708;28;20056;-91
2022/09/29 11:06:13;;;;;;;2.60;1.73;;;;;;;;;;4997028;28;20503;-90
2022/09/29 11:08:59;;;;;;;8.93;2.20;;;;;;;;;;4993261;28;20036;-91
2022/09/29 11:11:30;;;;;;;13.38;1.98;;;;;;;;;;4990408;28;20036;-91
2022/09/29 11:13:59;;;;;;;20.75;2.72;;;;;;;;;;4998253;28;20155;-91
2022/09/29 11:16:25;;;;;;;13.90;1.88;;;;;;;;;;5009974;28;20556;-90
2022/09/29 11:18:52;;;;;;;9.68;2.50;;;;;;;;;;4995864;28;20047;-90
2022/09/29 11:21:21;;;;;;;2.65;1.65;;;;;;;;;;4998005;28;20041;-91
2022/09/29 11:23:57;;;;;;;1.75;1.10;;;;;;;;;;5001751;28;20125;-90
2022/09/29 11:26:23;;;;;;;1.52;1.20;;;;;;;;;;5015655;28;20096;-91
2022/09/29 11:29:00;;;;;;;2.83;1.40;;;;;;;;;;4999738;28;20033;-90
2022/09/29 11:31:39;;;;;;;1.60;1.50;;;;;;;;;;4996557;28;20026;-91
2022/09/29 11:34:24;;;;;;;1.75;1.63;;;;;;;;;;4995428;28;20037;-91
2022/09/29 11:37:06;;;;;;;3.35;1.63;;;;;;;;;;4993343;28;20050;-91
2022/09/29 11:39:46;;;;;;;3.45;1.40;;;;;;;;;;5002441;28;20084;-91
2022/09/29 11:42:22;;;;;;;2.40;1.58;;;;;;;;;;5000249;28;20356;-91
2022/09/29 11:44:57;;;;;;;2.78;1.60;;;;;;;;;;5016481;28;20053;-90
2022/09/29 11:47:29;;;;;;;3.83;1.77;;;;;;;;;;5002145;28;20049;-89
2022/09/29 11:50:14;;;;;;;2.97;1.60;;;;;;;;;;5002994;28;20477;-91
2022/09/29 11:52:55;;;;;;;1.88;1.27;;;;;;;;;;5003492;28;20067;-91
2022/09/29 11:55:33;;;;;;;2.28;1.45;;;;;;;;;;5005004;28;20098;-91
2022/09/29 11:58:26;;;;;;;2.00;1.30;;;;;;;;;;4997818;28;20500;-90
2022/09/29 12:01:02;;;;;;;4.05;2.22;;;;;;;;;;5012266;28;20041;-90
2022/09/29 12:03:46;;;;;;;2.47;1.30;;;;;;;;;;4999225;28;20609;-90
2022/09/29 12:06:32;;;;;;;1.42;1.00;;;;;;;;;;5001281;28;20051;-91
2022/09/29 12:09:07;;;;;;;1.42;1.00;;;;;;;;;;4995922;28;20053;-91
2022/09/29 12:11:45;;;;;;;0.90;0.80;;;;;;;;;;4989792;28;20065;-91
2022/09/29 12:14:24;;;;;;;1.50;1.40;;;;;;;;;;4991780;28;20079;-92
2022/09/29 12:16:53;;;;;;;1.20;1.10;;;;;;;;;;4993650;28;20473;-91
2022/09/29 12:19:28;;;;;;;1.42;1.33;;;;;;;;;;4992588;28;20136;-90
2022/09/29 12:21:59;;;;;;;1.08;0.90;;;;;;;;;;4991449;28;20025;-91
2022/09/29 12:24:25;;;;;;;1.80;0.70;;;;;;;;;;4996130;28;20046;-91
2022/09/29 12:26:51;;;;;;;1.05;0.63;;;;;;;;;;4991973;28;20046;-91
2022/09/29 12:29:31;;;;;;;3.50;1.10;;;;;;;;;;4999379;28;20037;-91
2022/09/29 12:31:59;;;;;;;1.05;0.73;;;;;;;;;;5000109;28;20037;-91
2022/09/29 12:34:45;;;;;;;2.10;0.90;;;;;;;;;;4992881;28;20107;-90
2022/09/29 12:37:31;;;;;;;1.65;0.75;;;;;;;;;;4993192;28;20128;-89
2022/09/29 12:40:16;;;;;;;0.85;0.65;;;;;;;;;;4997708;28;20025;-90
2022/09/29 12:43:00;;;;;;;2.28;1.02;;;;;;;;;;4994619;28;20049;-90
2022/09/29 12:45:47;;;;;;;0.95;0.93;;;;;;;;;;5009097;28;20084;-90
2022/09/29 12:48:22;;;;;;;2.53;0.65;;;;;;;;;;4987467;28;20509;-90
2022/09/29 12:50:50;;;;;;;2.95;0.82;;;;;;;;;;4991559;28;20049;-90
2022/09/29 12:53:23;;;;;;;1.35;0.70;;;;;;;;;;4994754;28;20084;-91
2022/09/29 12:55:58;;;;;;;0.75;0.60;;;;;;;;;;4992435;28;20026;-90
2022/09/29 12:58:44;;;;;;;1.00;0.75;;;;;;;;;;5011630;28;20330;-90
2022/09/29 13:01:19;;;;;;;1.10;0.52;;;;;;;;;;4993272;28;20025;-91
2022/09/29 13:04:04;;;;;;;1.00;0.45;;;;;;;;;;4988634;28;20036;-91
2022/09/29 13:06:43;;;;;;;1.45;0.80;;;;;;;;;;5007728;28;20056;-90
2022/09/29 13:09:25;;;;;;;1.77;0.90;;;;;;;;;;4990499;28;20034;-91
2022/09/29 13:12:07;;;;;;;2.92;0.70;;;;;;;;;;4994325;28;20044;-91
2022/09/29 13:14:49;;;;;;;1.58;0.68;;;;;;;;;;4999460;28;20041;-90
2022/09/29 13:17:33;;;;;;;2.55;0.77;;;;;;;;;;5020879;28;20028;-90
2022/09/29 13:20:14;;;;;;;2.10;1.10;;;;;;;;;;5000354;28;20033;-89
2022/09/29 13:22:46;;;;;;;2.85;1.00;;;;;;;;;;5000833;28;20237;-90
2022/09/29 13:25:15;;;;;;;2.28;1.10;;;;;;;;;;5017313;28;20041;-90
2022/09/29 13:27:44;;;;;;;1.10;1.00;;;;;;;;;;5017398;28;20040;-90
2022/09/29 13:30:36;;;;;;;3.30;1.20;;;;;;;;;;5000886;28;20037;-90
2022/09/29 13:33:11;;;;;;;1.13;0.80;;;;;;;;;;4990908;28;20493;-90
2022/09/29 13:35:41;;;;;;;3.28;0.90;;;;;;;;;;4998731;28;20026;-91
2022/09/29 13:38:13;;;;;;;1.63;1.05;;;;;;;;;;5003670;28;20026;-90
2022/09/29 13:40:39;;;;;;;2.88;0.80;;;;;;;;;;5016730;28;20524;-91
2022/09/29 13:43:05;;;;;;;1.30;0.75;;;;;;;;;;4999715;28;20076;-90
2022/09/29 13:45:33;;;;;;;1.25;0.68;;;;;;;;;;4982280;28;20152;-90
2022/09/29 13:48:00;;;;;;;2.17;0.73;;;;;;;;;;4999925;28;20512;-90
2022/09/29 13:50:43;;;;;;;4.00;0.90;;;;;;;;;;4999406;28;20045;-90
2022/09/29 13:53:21;;;;;;;1.65;0.90;;;;;;;;;;5010569;28;20037;-90
2022/09/29 13:55:49;;;;;;;1.17;0.70;;;;;;;;;;5000853;28;20112;-90
2022/09/29 13:58:50;;;;;;;0.88;0.50;;;;;;;;;;5000265;28;20098;-90
2022/09/29 14:01:31;;;;;;;7.63;0.60;;;;;;;;;;5009646;28;20044;-90
2022/09/29 14:03:58;;;;;;;1.27;0.60;;;;;;;;;;5014691;28;20033;-89
2022/09/29 14:06:24;;;;;;;2.08;0.70;;;;;;;;;;4965809;28;20054;-91
2022/09/29 14:09:08;;;;;;;0.82;0.60;;;;;;;;;;4984693;28;20039;-90
2022/09/29 14:11:40;;;;;;;0.85;0.65;;;;;;;;;;4984273;28;20469;-90
2022/09/29 14:14:20;;;;;;;2.47;0.98;;;;;;;;;;4990659;28;20034;-90
2022/09/29 14:17:00;;;;;;;2.50;0.98;;;;;;;;;;4996759;28;20315;-90
2022/09/29 14:19:33;;;;;;;2.05;0.75;;;;;;;;;;4983495;28;20417;-90
2022/09/29 14:22:00;;;;;;;1.27;0.60;;;;;;;;;;4977526;28;20034;-90
2022/09/29 14:24:41;;;;;;;1.90;0.77;;;;;;;;;;4985000;28;20073;-90
2022/09/29 14:27:14;;;;;;;4.05;1.10;;;;;;;;;;4981483;28;20029;-90
2022/09/29 14:29:58;;;;;;;3.42;1.88;;;;;;;;;;4980409;28;20030;-89
2022/09/29 14:32:33;;;;;;;2.00;0.65;;;;;;;;;;4983578;28;20041;-90
2022/09/29 14:35:00;;;;;;;3.08;1.00;;;;;;;;;;4978147;28;20044;-90
2022/09/29 14:37:27;;;;;;;6.70;0.98;;;;;;;;;;4983247;28;20069;-90
2022/09/29 14:42:38;;;;;;;2.03;0.75;;;;;;;;;;4994554;28;20077;-90
2022/09/29 14:53:32;;;;;;;0.95;0.57;;;;;;;;;;4995327;28;20044;-90
2022/09/29 14:56:04;;;;;;;1.08;0.50;;;;;;;;;;4993681;28;20034;-90
2022/09/29 14:58:51;;;;;;;1.25;0.50;;;;;;;;;;4997837;28;20086;-90
2022/09/29 15:01:20;;;;;;;1.95;0.63;;;;;;;;;;4996763;28;20014;-90
2022/09/29 15:03:53;;;;;;;1.60;0.60;;;;;;;;;;4982160;28;20105;-90
2022/09/29 15:06:21;;;;;;;1.20;0.40;;;;;;;;;;4980331;28;20111;-90
2022/09/29 15:09:00;;;;;;;3.97;0.60;;;;;;;;;;5023095;28;20065;-90